Main page
METAR-TAF:

METAR-TAF

Airports :

Uherské Hradiště, Czech Republic

Kunovice Airport

latitude: 49-01-46N, longitude: 017-26-23E, elevation: 177 m

Current weather observation

The report was made 6 hours and 39 minutes ago, at 14:00 UTC
Wind 15 kt from the South with gusts up to 25 kt, varying between Southeast and South/Southwest
Temperature 30°C
Humidity 33%
Pressure 1009 hPa
Visibility 10 km or more
no clouds below 1500 m and no cumulonimbus

METAR: LKKU 271400Z 18015G25KT 130V200 CAVOK 30/12 Q1009

Time: 22:39 (20:39 UTC)


TAF: missing

Weather observations and forecasts of more than 4000 airports (METAR and TAF reports).

The available stations are represented by yellow and red dots on the map.

Hover mouse over dot to see the name of the station.

Then click to see weather observations and forecasts.

To change the map : click on the green buttons with a black cross to zoom in, on the green button with a dash to zoom out, or on the green arrows for adjacent maps.


METAR-TAF: